Time;durP1;ratioP1;P1;durP2;ratioP2;P2;SDS_P1;SDS_P2;PMS_P1;PMS_P2;Temp;Humidity;BMP_temperature;BMP_pressure;BME280_temperature;BME280_humidity;BME280_pressure;Samples;Min_cycle;Max_cycle;Signal;HPM_P1;HPM_P2
2022/08/02 00:01:40;;;;;;;0.80;0.50;;;;;;;27.23;37.96;98580.03;6097388;23;20580;-90
2022/08/02 00:04:06;;;;;;;1.87;0.70;;;;;;;27.17;38.22;98579.00;6097014;23;20185;-90
2022/08/02 00:06:31;;;;;;;1.30;0.90;;;;;;;27.14;38.30;98586.63;6097200;23;20148;-90
2022/08/02 00:08:57;;;;;;;2.37;0.90;;;;;;;27.13;37.93;98591.19;6097275;23;20584;-90
2022/08/02 00:11:22;;;;;;;2.00;0.75;;;;;;;27.14;38.14;98595.53;6096920;23;20207;-90
2022/08/02 00:13:48;;;;;;;1.30;0.70;;;;;;;27.14;38.19;98590.16;6097065;23;20163;-90
2022/08/02 00:16:13;;;;;;;0.90;0.50;;;;;;;27.20;37.87;98597.41;6097145;23;20159;-91
2022/08/02 00:18:39;;;;;;;1.33;0.65;;;;;;;27.16;37.98;98600.72;6097308;23;20176;-90
2022/08/02 00:21:05;;;;;;;1.70;0.80;;;;;;;27.07;38.19;98597.34;6073004;23;20503;-90
2022/08/02 00:23:30;;;;;;;1.33;0.60;;;;;;;27.08;38.29;98598.19;6100017;23;20156;-90
2022/08/02 00:25:56;;;;;;;1.73;0.77;;;;;;;27.09;38.11;98600.69;6099240;23;20149;-90
2022/08/02 00:28:23;;;;;;;1.50;0.63;;;;;;;27.09;38.22;98595.31;6099033;23;20235;-90
2022/08/02 00:30:49;;;;;;;1.40;0.77;;;;;;;27.13;38.20;98601.94;6098835;23;20563;-91
2022/08/02 00:33:14;;;;;;;1.77;0.80;;;;;;;27.09;38.36;98599.84;6099237;23;20148;-90
2022/08/02 00:35:40;;;;;;;1.63;0.80;;;;;;;27.09;38.42;98597.16;6098859;23;20152;-90
2022/08/02 00:38:05;;;;;;;2.70;0.90;;;;;;;27.10;38.13;98607.72;6098844;23;20183;-90
2022/08/02 00:40:31;;;;;;;2.80;0.50;;;;;;;27.16;38.14;98598.84;6098788;23;20469;-90
2022/08/02 00:43:06;;;;;;;1.80;0.73;;;;;;;27.16;38.40;98595.31;6098810;23;20164;-90
2022/08/02 00:45:33;;;;;;;3.00;0.77;;;;;;;26.99;38.64;98589.44;6099136;23;20136;-90
2022/08/02 00:47:59;;;;;;;1.63;0.90;;;;;;;26.96;38.66;98587.16;6073632;23;20583;-90
2022/08/02 00:50:25;;;;;;;2.50;0.80;;;;;;;26.79;38.79;98593.84;6073369;23;20157;-90
2022/08/02 00:52:51;;;;;;;2.03;1.00;;;;;;;26.81;39.20;98594.50;6073917;23;20171;-90
2022/08/02 00:55:16;;;;;;;1.13;0.70;;;;;;;26.78;39.25;98594.91;6073553;23;20152;-90
2022/08/02 00:57:42;;;;;;;1.33;0.77;;;;;;;26.77;38.93;98598.63;6073442;23;20156;-90
2022/08/02 01:00:08;;;;;;;1.30;0.70;;;;;;;26.74;38.76;98596.28;6073481;23;20186;-90
2022/08/02 01:02:34;;;;;;;0.80;0.53;;;;;;;26.73;39.28;98598.13;6099063;23;20211;-90
2022/08/02 01:04:59;;;;;;;1.23;0.70;;;;;;;26.71;39.32;98597.50;6098926;23;20148;-90
2022/08/02 01:07:25;;;;;;;1.03;0.60;;;;;;;26.59;39.32;98593.69;6073388;23;20157;-89
2022/08/02 01:09:51;;;;;;;2.03;0.67;;;;;;;26.59;39.47;98599.06;6074635;23;20435;-90
2022/08/02 01:12:16;;;;;;;1.43;0.87;;;;;;;26.56;39.53;98595.94;6073550;23;20191;-89
2022/08/02 01:14:44;;;;;;;6.87;2.27;;;;;;;26.51;39.77;98599.22;6098301;23;20148;-90
2022/08/02 01:17:28;;;;;;;2.13;0.80;;;;;;;26.58;39.24;98597.41;6098539;23;20197;-89
2022/08/02 01:20:12;;;;;;;1.40;0.90;;;;;;;26.58;39.70;98591.19;6098788;23;20220;-90
2022/08/02 01:22:52;;;;;;;1.03;0.70;;;;;;;26.59;39.58;98590.16;6073307;23;20149;-90
2022/08/02 01:25:27;;;;;;;1.07;0.60;;;;;;;26.57;39.70;98595.72;6098934;23;20156;-90
2022/08/02 01:28:11;;;;;;;1.13;0.80;;;;;;;26.50;39.54;98594.00;6098217;23;20156;-90
2022/08/02 01:30:40;;;;;;;1.20;0.60;;;;;;;26.44;39.84;98602.88;6098316;23;20171;-89
2022/08/02 01:33:07;;;;;;;2.10;0.70;;;;;;;26.46;39.75;98590.06;6097951;23;20227;-90
2022/08/02 01:35:38;;;;;;;2.00;0.90;;;;;;;26.44;39.63;98592.13;6098257;23;20156;-91
2022/08/02 01:38:11;;;;;;;2.27;0.90;;;;;;;26.45;39.67;98591.09;6098876;23;20141;-91
2022/08/02 01:40:40;;;;;;;1.00;0.50;;;;;;;26.43;39.88;98593.97;6073215;23;20163;-91
2022/08/02 01:43:07;;;;;;;1.33;0.60;;;;;;;26.44;40.03;98592.94;6098094;23;20156;-90
2022/08/02 01:45:34;;;;;;;3.60;0.97;;;;;;;26.40;39.86;98590.84;6098272;23;20153;-91
2022/08/02 01:48:02;;;;;;;2.43;0.77;;;;;;;26.33;40.10;98595.34;6073363;23;20576;-91
2022/08/02 01:50:32;;;;;;;1.40;0.80;;;;;;;26.26;40.04;98589.09;6096878;23;20157;-91
2022/08/02 01:53:01;;;;;;;1.47;0.60;;;;;;;26.29;40.17;98594.03;6098052;23;20240;-91
2022/08/02 01:55:32;;;;;;;1.50;0.50;;;;;;;26.30;40.11;98591.19;6098087;23;20573;-90
2022/08/02 01:58:00;;;;;;;1.67;0.83;;;;;;;26.35;39.98;98595.97;6098101;23;20143;-90
2022/08/02 02:00:30;;;;;;;1.23;0.80;;;;;;;26.34;40.14;98579.00;6096827;23;20153;-89
2022/08/02 02:02:58;;;;;;;2.73;0.63;;;;;;;26.32;40.21;98578.38;6097989;23;20153;-90
2022/08/02 02:05:26;;;;;;;1.57;0.70;;;;;;;26.30;40.33;98582.28;6097901;23;20153;-90
2022/08/02 02:07:57;;;;;;;0.77;0.50;;;;;;;26.30;40.30;98584.97;6098202;23;20643;-89
2022/08/02 02:10:29;;;;;;;1.97;0.87;;;;;;;26.24;40.20;98583.88;6098267;23;20136;-90
2022/08/02 02:12:57;;;;;;;1.87;0.73;;;;;;;26.18;40.58;98577.41;6072643;23;20165;-90
2022/08/02 02:15:27;;;;;;;1.53;0.90;;;;;;;26.11;40.84;98584.56;6072787;23;20156;-90
2022/08/02 02:17:55;;;;;;;1.87;1.03;;;;;;;26.03;41.05;98584.69;6097794;23;20272;-90
2022/08/02 02:20:22;;;;;;;1.63;0.70;;;;;;;26.02;40.80;98585.69;6097737;23;20484;-90
2022/08/02 02:22:48;;;;;;;0.73;0.53;;;;;;;25.90;41.03;98578.34;6072709;23;20164;-91
2022/08/02 02:25:17;;;;;;;1.63;0.83;;;;;;;25.82;41.54;98579.31;6098020;23;20160;-90
2022/08/02 02:27:51;;;;;;;1.60;0.60;;;;;;;25.80;41.15;98588.56;6097704;23;20187;-90
2022/08/02 02:30:20;;;;;;;0.73;0.50;;;;;;;25.59;41.62;98586.69;6098190;23;20139;-90
2022/08/02 02:32:49;;;;;;;1.27;0.60;;;;;;;25.63;41.91;98579.91;6072452;23;20604;-91
2022/08/02 02:35:17;;;;;;;1.13;0.63;;;;;;;25.57;41.57;98583.38;6072616;23;20153;-90
2022/08/02 02:37:44;;;;;;;2.03;1.00;;;;;;;25.63;41.47;98588.81;6097536;23;20211;-90
2022/08/02 02:40:12;;;;;;;1.10;0.60;;;;;;;25.69;41.26;98584.53;6098391;23;20152;-90
2022/08/02 02:42:41;;;;;;;1.17;0.60;;;;;;;25.64;41.52;98592.31;6097772;23;20473;-91
2022/08/02 02:45:09;;;;;;;0.87;0.50;;;;;;;25.54;41.20;98589.13;6097685;23;20169;-91
2022/08/02 02:47:36;;;;;;;0.80;0.53;;;;;;;25.58;41.54;98593.06;6098303;23;20569;-90
2022/08/02 02:50:02;;;;;;;1.43;0.60;;;;;;;25.58;41.72;98587.72;6097745;23;20152;-90
2022/08/02 02:52:28;;;;;;;1.43;0.80;;;;;;;25.49;41.71;98591.53;6097528;23;20601;-90
2022/08/02 02:54:55;;;;;;;1.67;0.50;;;;;;;25.62;41.75;98595.22;6097513;23;20160;-90
2022/08/02 02:57:21;;;;;;;2.20;0.83;;;;;;;25.70;41.35;98593.44;6097277;23;20157;-91
2022/08/02 02:59:47;;;;;;;1.50;0.63;;;;;;;25.73;41.11;98596.56;6097295;23;20600;-91
2022/08/02 03:02:13;;;;;;;1.60;0.83;;;;;;;25.72;41.03;98597.59;6097434;23;20159;-90
2022/08/02 03:04:40;;;;;;;1.13;0.70;;;;;;;25.80;41.01;98597.47;6097421;23;20224;-90
2022/08/02 03:07:08;;;;;;;1.77;0.80;;;;;;;25.86;40.67;98599.41;6097729;23;20568;-91
2022/08/02 03:09:33;;;;;;;0.93;0.63;;;;;;;25.86;40.78;98595.88;6072280;23;20628;-90
2022/08/02 03:11:59;;;;;;;1.40;0.63;;;;;;;25.83;41.13;98599.78;6097224;23;20180;-90
2022/08/02 03:14:25;;;;;;;1.00;0.50;;;;;;;25.83;41.10;98599.78;6097951;23;20163;-90
2022/08/02 03:16:52;;;;;;;1.30;0.50;;;;;;;25.88;40.74;98597.34;6097319;23;20148;-90
2022/08/02 03:19:19;;;;;;;1.30;0.80;;;;;;;25.83;41.25;98591.72;6072170;23;20160;-90
2022/08/02 03:21:46;;;;;;;5.13;0.67;;;;;;;25.75;41.32;98602.56;6097393;23;20219;-92
2022/08/02 03:24:12;;;;;;;1.40;0.80;;;;;;;25.74;41.18;98598.22;6097244;23;20580;-90
2022/08/02 03:26:38;;;;;;;2.63;1.80;;;;;;;25.78;41.01;98602.22;6097318;23;20155;-90
2022/08/02 03:29:05;;;;;;;2.70;1.50;;;;;;;25.80;40.79;98608.22;6072163;23;20212;-90
2022/08/02 03:31:31;;;;;;;3.47;1.67;;;;;;;25.79;41.27;98598.47;6071992;23;20517;-91
2022/08/02 03:33:58;;;;;;;1.60;0.87;;;;;;;25.79;41.17;98601.16;6097160;23;20232;-90
2022/08/02 03:36:26;;;;;;;1.00;0.80;;;;;;;25.80;41.08;98602.00;6097886;23;20153;-90
2022/08/02 03:38:53;;;;;;;1.87;0.87;;;;;;;25.83;41.19;98607.84;6097192;23;20163;-90
2022/08/02 03:41:20;;;;;;;2.23;0.80;;;;;;;25.79;41.22;98614.59;6097351;23;20149;-90
2022/08/02 03:43:49;;;;;;;1.63;0.60;;;;;;;25.75;41.51;98613.31;6094936;23;20192;-90
2022/08/02 03:46:19;;;;;;;1.27;0.60;;;;;;;25.72;41.60;98613.69;6096683;23;20251;-90
2022/08/02 03:48:47;;;;;;;1.63;0.77;;;;;;;25.68;42.14;98614.28;6096545;23;20155;-90
2022/08/02 03:51:14;;;;;;;1.13;0.60;;;;;;;25.63;42.37;98621.03;6096765;23;20207;-89
2022/08/02 03:53:41;;;;;;;4.77;1.00;;;;;;;25.56;42.36;98619.28;6070985;23;20160;-90
2022/08/02 03:56:09;;;;;;;3.67;1.10;;;;;;;25.54;42.57;98615.94;6071754;23;20227;-90
2022/08/02 03:58:34;;;;;;;3.03;1.20;;;;;;;25.53;42.70;98623.16;6097517;23;20564;-90
2022/08/02 04:01:01;;;;;;;2.40;0.70;;;;;;;25.49;42.77;98629.09;6097050;23;20145;-90
2022/08/02 04:03:28;;;;;;;1.87;0.90;;;;;;;25.44;42.64;98626.97;6071643;23;20467;-90
2022/08/02 04:05:55;;;;;;;2.77;1.77;;;;;;;25.41;43.05;98630.00;6097053;23;20206;-90
2022/08/02 04:08:21;;;;;;;2.10;0.97;;;;;;;25.38;43.50;98630.38;6096855;23;20152;-90
2022/08/02 04:13:35;;;;;;;1.50;0.90;;;;;;;25.43;43.43;98637.88;6096513;23;20147;-90
2022/08/02 04:16:22;;;;;;;2.07;1.00;;;;;;;25.38;43.03;98640.28;6071481;23;20167;-91
2022/08/02 04:18:56;;;;;;;2.87;1.03;;;;;;;25.34;43.08;98639.81;6072093;23;20156;-91
2022/08/02 04:21:27;;;;;;;2.20;0.90;;;;;;;25.31;43.20;98636.69;6096636;23;20135;-90
2022/08/02 04:23:55;;;;;;;2.90;1.03;;;;;;;25.14;43.88;98644.06;6071438;23;20156;-91
2022/08/02 04:26:23;;;;;;;1.70;0.90;;;;;;;25.12;43.78;98647.97;6047368;23;20588;-90
2022/08/02 04:28:50;;;;;;;1.40;0.70;;;;;;;25.23;43.34;98644.81;6071289;23;20194;-91
2022/08/02 04:31:18;;;;;;;1.07;0.63;;;;;;;25.26;42.96;98637.22;6096498;23;20604;-90
2022/08/02 04:33:45;;;;;;;1.30;0.90;;;;;;;25.29;43.10;98639.53;6096597;23;20152;-91
2022/08/02 04:36:15;;;;;;;1.03;0.70;;;;;;;25.39;42.89;98641.94;6097117;23;20148;-91
2022/08/02 04:38:51;;;;;;;1.37;0.87;;;;;;;25.41;42.85;98642.59;6097503;23;20152;-90
2022/08/02 04:41:18;;;;;;;1.30;0.70;;;;;;;25.51;43.27;98638.63;6096145;23;20215;-91
2022/08/02 04:43:43;;;;;;;1.53;0.83;;;;;;;25.64;42.83;98635.28;6071603;23;20157;-91
2022/08/02 04:46:11;;;;;;;1.57;0.60;;;;;;;25.60;43.07;98636.69;6096909;23;20151;-90
2022/08/02 04:48:37;;;;;;;1.60;0.77;;;;;;;25.64;42.89;98643.31;6071860;23;20218;-90
2022/08/02 04:51:02;;;;;;;1.60;0.90;;;;;;;25.72;42.46;98642.38;6096954;23;20219;-90
2022/08/02 04:53:35;;;;;;;1.93;1.03;;;;;;;25.75;42.63;98647.38;6097536;23;20160;-90
2022/08/02 04:56:01;;;;;;;1.20;0.70;;;;;;;25.72;42.29;98643.22;6097569;23;20207;-90
2022/08/02 04:58:26;;;;;;;1.47;0.80;;;;;;;25.88;42.50;98645.69;6071143;23;20202;-92
2022/08/02 05:00:53;;;;;;;3.77;1.30;;;;;;;25.87;42.59;98649.38;6096567;23;20152;-90
2022/08/02 05:03:20;;;;;;;2.33;1.10;;;;;;;26.08;41.85;98652.09;6097292;23;20153;-90
2022/08/02 05:05:47;;;;;;;1.73;1.03;;;;;;;26.15;41.66;98655.72;6097343;23;20152;-91
2022/08/02 05:08:13;;;;;;;2.87;1.03;;;;;;;26.16;41.77;98656.53;6073206;23;20160;-91
2022/08/02 05:10:40;;;;;;;2.80;0.70;;;;;;;26.26;41.66;98649.00;6073373;23;20561;-90
2022/08/02 05:13:07;;;;;;;1.80;0.87;;;;;;;26.44;41.48;98653.94;6073535;23;20231;-91
2022/08/02 05:15:34;;;;;;;1.77;0.93;;;;;;;26.59;41.53;98647.47;6098506;23;20176;-91
2022/08/02 05:18:01;;;;;;;2.13;0.80;;;;;;;26.57;41.46;98643.31;6098520;23;20180;-92
2022/08/02 05:20:26;;;;;;;1.60;0.87;;;;;;;26.60;41.26;98645.59;6098613;23;20156;-91
2022/08/02 05:22:53;;;;;;;2.93;0.80;;;;;;;26.39;41.57;98651.00;6098468;23;20144;-90
2022/08/02 05:25:20;;;;;;;1.47;0.83;;;;;;;26.50;41.65;98655.84;6073394;23;20161;-90
2022/08/02 05:27:47;;;;;;;1.57;0.90;;;;;;;26.73;41.40;98654.59;6073220;23;20156;-90
2022/08/02 05:30:13;;;;;;;1.73;0.90;;;;;;;26.72;41.00;98641.38;6098782;23;20149;-90
2022/08/02 05:32:48;;;;;;;9.80;0.93;;;;;;;26.80;40.71;98649.31;6098224;23;20213;-91
2022/08/02 05:35:18;;;;;;;0.97;0.60;;;;;;;26.82;40.81;98644.56;6072388;23;20219;-91
2022/08/02 05:37:44;;;;;;;1.47;0.70;;;;;;;27.03;40.00;98647.22;6073053;23;20157;-92
2022/08/02 05:40:10;;;;;;;1.67;0.80;;;;;;;27.16;40.17;98649.97;6072559;23;20164;-91
2022/08/02 05:42:35;;;;;;;0.97;0.50;;;;;;;27.08;40.22;98652.81;6072982;23;20223;-90
2022/08/02 05:45:01;;;;;;;4.33;0.83;;;;;;;27.16;40.48;98649.16;6098096;23;20199;-91
2022/08/02 05:47:26;;;;;;;1.00;0.40;;;;;;;27.28;39.59;98659.16;6073019;23;20166;-91
2022/08/02 05:49:52;;;;;;;1.43;0.60;;;;;;;27.35;39.36;98660.03;6098288;23;20159;-91
2022/08/02 05:52:19;;;;;;;0.80;0.40;;;;;;;27.40;38.80;98659.47;6097409;23;20180;-90
2022/08/02 05:54:53;;;;;;;4.22;1.35;;;;;;;27.52;38.97;98660.56;6097441;23;20591;-90
2022/08/02 05:57:40;;;;;;;1.47;0.60;;;;;;;27.46;39.00;98665.94;6097987;23;20137;-90
2022/08/02 06:00:08;;;;;;;1.30;0.40;;;;;;;27.43;38.39;98668.00;6098196;23;20200;-91
2022/08/02 06:02:56;;;;;;;1.40;0.70;;;;;;;27.74;38.04;98675.59;6098862;23;20588;-90
2022/08/02 06:05:25;;;;;;;1.17;0.70;;;;;;;27.88;37.50;98674.59;6073132;23;20149;-91
2022/08/02 06:07:54;;;;;;;5.47;0.70;;;;;;;27.85;38.03;98666.09;6073085;23;20164;-91
2022/08/02 06:10:21;;;;;;;2.30;0.80;;;;;;;28.03;37.79;98671.78;6097977;23;20211;-91
2022/08/02 06:13:10;;;;;;;1.48;0.57;;;;;;;28.24;36.87;98676.19;6098199;23;20199;-89
2022/08/02 06:15:39;;;;;;;1.23;0.40;;;;;;;28.29;36.59;98679.09;6098339;23;20137;-90
2022/08/02 06:18:06;;;;;;;0.93;0.40;;;;;;;28.42;36.36;98679.97;6072719;23;20240;-92
2022/08/02 06:20:35;;;;;;;1.52;0.70;;;;;;;28.53;36.07;98692.84;6073014;23;20556;-90
2022/08/02 06:23:06;;;;;;;1.00;0.60;;;;;;;28.81;36.25;98689.97;6097879;23;20144;-91
2022/08/02 06:25:33;;;;;;;1.52;0.65;;;;;;;29.03;35.74;98687.91;6097975;23;20616;-90
2022/08/02 06:28:02;;;;;;;0.57;0.38;;;;;;;29.21;35.77;98690.81;6097903;23;20160;-91
2022/08/02 06:30:28;;;;;;;1.42;0.55;;;;;;;29.43;35.60;98692.22;6072702;23;20525;-92
2022/08/02 06:32:54;;;;;;;1.40;0.68;;;;;;;29.47;34.84;98695.34;6072556;23;20582;-92
2022/08/02 06:35:20;;;;;;;1.08;0.43;;;;;;;29.68;34.80;98689.66;6073313;23;20161;-90
2022/08/02 06:38:00;;;;;;;1.70;0.63;;;;;;;29.91;34.10;98700.00;6098091;23;20548;-90
2022/08/02 06:40:31;;;;;;;2.03;0.40;;;;;;;29.79;34.47;98697.97;6098318;23;20140;-92
2022/08/02 06:43:15;;;;;;;1.25;0.50;;;;;;;29.65;35.12;98696.31;6097907;23;20140;-91
2022/08/02 06:45:41;;;;;;;1.33;0.63;;;;;;;29.73;35.21;98692.56;6097644;23;20164;-92
2022/08/02 06:48:08;;;;;;;2.35;0.73;;;;;;;29.90;34.06;98693.75;6072241;23;20156;-90
2022/08/02 06:50:37;;;;;;;0.98;0.40;;;;;;;30.16;33.72;98698.22;6097415;23;20231;-90
2022/08/02 06:53:04;;;;;;;1.20;0.60;;;;;;;30.23;33.70;98702.56;6098205;23;20195;-91
2022/08/02 06:55:31;;;;;;;4.32;0.75;;;;;;;30.38;34.94;98699.56;6098170;23;20184;-90
2022/08/02 06:57:57;;;;;;;1.05;0.65;;;;;;;30.64;33.63;98699.41;6097590;23;20231;-90
2022/08/02 07:00:23;;;;;;;1.15;0.55;;;;;;;30.76;33.62;98700.38;6097628;23;20163;-91
2022/08/02 07:02:49;;;;;;;0.60;0.50;;;;;;;30.81;33.16;98697.81;6097504;23;20520;-91
2022/08/02 07:05:15;;;;;;;1.08;0.52;;;;;;;30.99;32.87;98697.91;6097607;23;20153;-91
2022/08/02 07:07:40;;;;;;;1.17;0.50;;;;;;;31.24;32.58;98689.75;6097561;23;20459;-90
2022/08/02 07:10:06;;;;;;;1.17;0.60;;;;;;;31.33;32.77;98695.72;6072985;23;20167;-92
2022/08/02 07:12:33;;;;;;;1.02;0.52;;;;;;;31.57;32.42;98687.56;6072101;23;20265;-91
2022/08/02 07:15:01;;;;;;;2.88;0.60;;;;;;;31.69;31.70;98686.78;6098000;23;20153;-91
2022/08/02 07:17:27;;;;;;;1.02;0.45;;;;;;;31.94;31.96;98690.25;6072250;23;20167;-90
2022/08/02 07:19:52;;;;;;;1.75;1.08;;;;;;;31.88;31.50;98685.72;6097353;23;20152;-90
2022/08/02 07:22:21;;;;;;;1.40;0.52;;;;;;;32.18;32.26;98692.88;6097300;23;20145;-91
2022/08/02 07:24:47;;;;;;;1.67;0.60;;;;;;;32.25;30.83;98678.38;6072318;23;20573;-92
2022/08/02 07:27:12;;;;;;;0.85;0.30;;;;;;;32.21;30.56;98673.44;6072203;23;20187;-91
2022/08/02 07:29:39;;;;;;;0.85;0.43;;;;;;;32.43;30.61;98678.34;6097010;23;20218;-91
2022/08/02 07:32:05;;;;;;;3.00;0.38;;;;;;;32.61;30.75;98676.41;6096981;23;20177;-91
2022/08/02 07:34:30;;;;;;;0.65;0.40;;;;;;;32.92;30.20;98677.16;6097312;23;20156;-90
2022/08/02 07:36:56;;;;;;;0.85;0.50;;;;;;;32.98;30.08;98668.91;6097559;23;20636;-91
2022/08/02 07:39:21;;;;;;;1.27;0.52;;;;;;;33.05;30.41;98672.34;6097011;23;20156;-94
2022/08/02 07:41:50;;;;;;;1.10;0.45;;;;;;;32.89;30.47;98673.03;6097770;23;20184;-91
2022/08/02 07:44:16;;;;;;;0.70;0.40;;;;;;;33.16;30.65;98668.81;6097293;23;20164;-91
2022/08/02 07:46:41;;;;;;;1.40;0.30;;;;;;;33.41;29.16;98668.59;6072281;23;20156;-90
2022/08/02 07:49:07;;;;;;;0.63;0.20;;;;;;;33.58;28.63;98676.84;6072344;23;20164;-90
2022/08/02 07:51:34;;;;;;;1.77;0.20;;;;;;;33.70;29.40;98675.75;6097121;23;20207;-91
2022/08/02 07:54:00;;;;;;;0.68;0.38;;;;;;;33.90;28.92;98676.19;6097286;23;20199;-90
2022/08/02 07:56:26;;;;;;;0.57;0.20;;;;;;;33.99;28.06;98669.28;6072057;23;20600;-91
2022/08/02 07:58:51;;;;;;;0.75;0.30;;;;;;;33.84;28.06;98668.16;6097882;23;20232;-91
2022/08/02 08:01:17;;;;;;;0.25;0.10;;;;;;;33.93;28.41;98674.88;6097883;23;20168;-91
2022/08/02 08:03:42;;;;;;;0.75;0.22;;;;;;;34.26;28.48;98679.63;6097405;23;20148;-90
2022/08/02 08:06:08;;;;;;;1.45;0.40;;;;;;;34.50;28.36;98673.81;6071976;23;20616;-91
2022/08/02 08:08:34;;;;;;;1.13;0.20;;;;;;;34.76;27.80;98674.28;6097182;23;20245;-91
2022/08/02 08:10:59;;;;;;;0.35;0.20;;;;;;;34.69;27.20;98673.63;6072298;23;20671;-91
2022/08/02 08:13:25;;;;;;;1.30;0.47;;;;;;;34.75;27.12;98672.66;6097258;23;20155;-91
2022/08/02 08:15:50;;;;;;;0.88;0.30;;;;;;;34.76;26.69;98679.72;6073073;23;20648;-91
2022/08/02 08:18:16;;;;;;;0.55;0.10;;;;;;;35.10;27.82;98673.22;6097377;23;20211;-91
2022/08/02 08:20:41;;;;;;;0.32;0.15;;;;;;;35.38;26.92;98664.91;6071787;23;20194;-91
2022/08/02 08:23:07;;;;;;;0.55;0.30;;;;;;;35.46;26.63;98669.94;6097781;23;20240;-90
2022/08/02 08:25:32;;;;;;;1.17;0.60;;;;;;;35.60;26.53;98668.53;6072068;23;20153;-91
2022/08/02 08:27:58;;;;;;;0.30;0.20;;;;;;;35.58;26.88;98667.13;6097067;23;20211;-90
2022/08/02 08:30:24;;;;;;;1.10;0.30;;;;;;;35.71;26.16;98667.59;6071753;23;20241;-91
2022/08/02 08:32:49;;;;;;;0.60;0.30;;;;;;;35.72;27.00;98669.22;6072066;23;20189;-92
2022/08/02 08:35:15;;;;;;;0.52;0.30;;;;;;;35.64;25.72;98671.59;6072417;23;20156;-94
2022/08/02 08:37:40;;;;;;;0.63;0.30;;;;;;;35.59;26.38;98669.59;6072335;23;20201;-91
2022/08/02 08:40:10;;;;;;;1.08;0.38;;;;;;;35.82;26.39;98670.44;6072250;23;20167;-91
2022/08/02 08:42:37;;;;;;;0.50;0.30;;;;;;;35.67;26.19;98663.72;6098171;23;20219;-90
2022/08/02 08:45:04;;;;;;;2.72;1.25;;;;;;;36.06;25.69;98666.41;6098716;23;20176;-91
2022/08/02 08:47:40;;;;;;;0.50;0.20;;;;;;;36.24;26.27;98660.59;6099367;23;20153;-91
2022/08/02 08:50:09;;;;;;;0.73;0.20;;;;;;;36.39;26.09;98663.47;6098741;23;20152;-91
2022/08/02 08:52:41;;;;;;;0.60;0.20;;;;;;;36.46;25.59;98655.88;6098678;23;20180;-91
2022/08/02 08:55:09;;;;;;;0.40;0.20;;;;;;;36.56;24.97;98652.47;6098832;23;20161;-92
2022/08/02 08:57:38;;;;;;;0.73;0.30;;;;;;;36.74;24.48;98652.09;6073421;23;20157;-91
2022/08/02 09:00:04;;;;;;;0.90;0.40;;;;;;;36.56;25.25;98655.22;6098590;23;20148;-91
2022/08/02 09:02:33;;;;;;;0.80;0.30;;;;;;;36.52;24.66;98657.63;6098626;23;20262;-91
2022/08/02 09:04:59;;;;;;;0.70;0.30;;;;;;;36.04;24.77;98654.91;6098521;23;20156;-91
2022/08/02 09:07:25;;;;;;;0.70;0.30;;;;;;;36.58;25.55;98653.84;6098592;23;20183;-91
2022/08/02 09:09:50;;;;;;;0.40;0.20;;;;;;;36.76;25.58;98648.00;6098411;23;20160;-90
2022/08/02 09:12:18;;;;;;;0.52;0.20;;;;;;;36.74;24.89;98643.88;6098542;23;20243;-90
2022/08/02 09:14:45;;;;;;;0.70;0.30;;;;;;;36.54;24.76;98647.25;6098439;23;20164;-90
2022/08/02 09:17:11;;;;;;;2.20;0.20;;;;;;;36.63;24.78;98642.97;6098478;23;20176;-91
2022/08/02 09:19:37;;;;;;;0.63;0.30;;;;;;;36.84;24.58;98638.50;6073794;23;20153;-91
2022/08/02 09:22:08;;;;;;;0.43;0.22;;;;;;;36.24;25.36;98645.00;6098807;23;20151;-90
2022/08/02 09:24:44;;;;;;;0.63;0.20;;;;;;;36.14;25.27;98655.03;6098390;23;20153;-90
2022/08/02 09:27:12;;;;;;;1.25;0.45;;;;;;;36.11;25.94;98644.63;6099115;23;20210;-91
2022/08/02 09:29:38;;;;;;;0.32;0.20;;;;;;;36.13;24.80;98639.72;6073211;23;20153;-91
2022/08/02 09:32:04;;;;;;;0.55;0.30;;;;;;;35.90;25.25;98640.00;6097139;23;20688;-93
2022/08/02 09:34:51;;;;;;;0.47;0.20;;;;;;;35.57;26.44;98643.66;6098719;23;20564;-90
2022/08/02 09:37:26;;;;;;;0.63;0.30;;;;;;;35.87;26.17;98630.41;6073320;23;20580;-90
2022/08/02 09:39:52;;;;;;;0.25;0.10;;;;;;;36.09;26.76;98636.69;6098250;23;20160;-90
2022/08/02 09:42:18;;;;;;;0.30;0.20;;;;;;;36.21;25.73;98639.28;6098580;23;20219;-91
2022/08/02 09:44:55;;;;;;;0.40;0.20;;;;;;;36.33;25.61;98626.28;6098041;23;20164;-90
2022/08/02 09:47:20;;;;;;;0.52;0.30;;;;;;;36.45;24.81;98632.41;6073779;23;20234;-90
2022/08/02 09:49:46;;;;;;;1.92;0.32;;;;;;;36.44;25.42;98638.13;6098776;23;20161;-90
2022/08/02 09:52:12;;;;;;;0.60;0.22;;;;;;;36.31;25.28;98636.63;6072963;23;20188;-90
2022/08/02 09:54:39;;;;;;;0.55;0.20;;;;;;;36.17;25.93;98633.50;6097818;23;20163;-91
2022/08/02 09:57:04;;;;;;;1.10;0.50;;;;;;;36.04;25.87;98636.63;6073022;23;20180;-91
2022/08/02 09:59:30;;;;;;;0.40;0.25;;;;;;;36.07;26.35;98632.56;6098314;23;20249;-90
2022/08/02 10:01:57;;;;;;;0.20;0.20;;;;;;;36.13;25.80;98637.00;6098655;23;20149;-90
2022/08/02 10:04:25;;;;;;;0.65;0.30;;;;;;;36.20;26.48;98630.25;6072939;23;20156;-91
2022/08/02 10:06:52;;;;;;;0.80;0.40;;;;;;;36.19;26.33;98634.03;6072738;23;20163;-90
2022/08/02 10:09:18;;;;;;;0.60;0.30;;;;;;;36.41;25.84;98628.53;6098254;23;20155;-90
2022/08/02 10:11:44;;;;;;;1.08;0.40;;;;;;;36.31;25.31;98626.53;6097831;23;20177;-91
2022/08/02 10:14:10;;;;;;;0.52;0.30;;;;;;;36.31;25.05;98622.97;6098247;23;20219;-90
2022/08/02 10:16:38;;;;;;;1.05;0.35;;;;;;;36.20;25.75;98632.16;6072697;23;20163;-90
2022/08/02 10:19:04;;;;;;;0.47;0.30;;;;;;;36.02;26.17;98630.59;6098706;23;20207;-90
2022/08/02 10:21:35;;;;;;;0.80;0.40;;;;;;;35.90;25.23;98632.63;6097806;23;20149;-90
2022/08/02 10:24:14;;;;;;;0.50;0.35;;;;;;;35.75;27.33;98618.78;6072840;23;20155;-90
2022/08/02 10:26:43;;;;;;;1.60;0.40;;;;;;;36.00;25.48;98621.00;6096604;23;20215;-90
2022/08/02 10:29:10;;;;;;;0.65;0.32;;;;;;;36.21;25.12;98622.88;6097630;23;20159;-90
2022/08/02 10:31:49;;;;;;;1.13;0.40;;;;;;;36.37;25.75;98621.97;6072822;23;20212;-89
2022/08/02 10:34:18;;;;;;;0.90;0.50;;;;;;;36.51;24.85;98616.91;6098300;23;20136;-90
2022/08/02 10:36:47;;;;;;;1.67;0.50;;;;;;;36.49;24.54;98617.16;6073391;23;20210;-90
2022/08/02 10:39:12;;;;;;;0.50;0.40;;;;;;;36.38;24.32;98613.50;6097629;23;20178;-90
2022/08/02 10:41:42;;;;;;;0.80;0.50;;;;;;;36.65;24.73;98610.75;6098200;23;20176;-90
2022/08/02 10:44:08;;;;;;;1.17;0.70;;;;;;;36.80;25.50;98621.78;6097280;23;20521;-90
2022/08/02 10:46:35;;;;;;;1.33;0.60;;;;;;;37.23;23.80;98609.00;6073483;23;20148;-90
2022/08/02 10:49:07;;;;;;;0.60;0.40;;;;;;;36.97;24.70;98615.38;6072413;23;20239;-90
2022/08/02 10:51:57;;;;;;;1.85;0.60;;;;;;;37.20;24.51;98614.97;6073240;23;20195;-90
2022/08/02 10:54:30;;;;;;;1.13;0.70;;;;;;;37.61;23.47;98610.59;6072382;23;20476;-90
2022/08/02 10:56:58;;;;;;;1.05;0.55;;;;;;;37.69;23.57;98605.38;6097781;23;20572;-91
2022/08/02 10:59:34;;;;;;;0.90;0.47;;;;;;;37.79;23.76;98605.41;6072292;23;20156;-90
2022/08/02 11:02:01;;;;;;;1.52;0.70;;;;;;;38.05;22.66;98612.63;6097767;23;20135;-90
2022/08/02 11:04:40;;;;;;;1.83;0.70;;;;;;;38.09;22.54;98611.03;6097338;23;20153;-90
2022/08/02 11:07:06;;;;;;;1.20;0.60;;;;;;;38.22;22.96;98603.38;6072182;23;20144;-90
2022/08/02 11:09:32;;;;;;;0.82;0.47;;;;;;;38.21;23.14;98605.28;6073305;23;20531;-90
2022/08/02 11:12:07;;;;;;;1.42;0.60;;;;;;;38.36;23.40;98597.13;6072063;23;20184;-90
2022/08/02 11:14:38;;;;;;;1.30;0.52;;;;;;;38.32;23.26;98596.00;6097981;23;20151;-90
2022/08/02 11:17:06;;;;;;;0.88;0.60;;;;;;;38.16;22.89;98596.25;6097503;23;20153;-90
2022/08/02 11:19:33;;;;;;;0.95;0.70;;;;;;;38.23;23.66;98596.81;6097219;23;20159;-89
2022/08/02 11:22:05;;;;;;;1.20;0.68;;;;;;;38.36;22.61;98593.56;6097223;23;20195;-90
2022/08/02 11:24:33;;;;;;;0.93;0.50;;;;;;;38.55;22.71;98595.47;6097940;23;20152;-90
2022/08/02 11:27:01;;;;;;;0.57;0.30;;;;;;;38.43;22.39;98585.88;6097581;23;20159;-90
2022/08/02 11:29:39;;;;;;;1.67;0.60;;;;;;;38.20;22.38;98589.97;6097540;23;20148;-90
2022/08/02 11:32:16;;;;;;;0.95;0.57;;;;;;;38.35;22.55;98589.16;6097101;23;20184;-90
2022/08/02 11:34:45;;;;;;;2.08;0.93;;;;;;;38.29;22.32;98587.50;6097141;23;20572;-91
2022/08/02 11:37:11;;;;;;;0.85;0.50;;;;;;;38.12;22.91;98585.00;6097185;23;20522;-91
2022/08/02 11:39:37;;;;;;;1.30;0.50;;;;;;;38.03;23.66;98584.72;6097196;23;20231;-90
2022/08/02 11:42:03;;;;;;;0.85;0.40;;;;;;;38.06;23.81;98578.72;6073336;23;20251;-90